createdAt,value
2022-08-11T00:00:58.224Z,6.28
2022-08-11T00:03:06.416Z,6.40
2022-08-11T00:05:15.594Z,6.68
2022-08-11T00:07:19.414Z,6.15
2022-08-11T00:09:31.889Z,5.50
2022-08-11T00:11:47.111Z,4.95
2022-08-11T00:13:50.761Z,5.70
2022-08-11T00:15:53.492Z,5.43
2022-08-11T00:18:03.398Z,5.30
2022-08-11T00:20:16.988Z,5.78
2022-08-11T00:22:24.459Z,5.95
2022-08-11T00:24:34.013Z,6.03
2022-08-11T00:26:56.508Z,5.43
2022-08-11T00:29:09.516Z,5.55
2022-08-11T00:31:26.632Z,5.95
2022-08-11T00:33:45.136Z,5.47
2022-08-11T00:35:57.156Z,5.30
2022-08-11T00:38:01.563Z,5.90
2022-08-11T00:40:10.360Z,5.97
2022-08-11T00:42:16.160Z,5.18
2022-08-11T00:44:31.015Z,5.18
2022-08-11T00:46:51.427Z,5.28
2022-08-11T00:49:27.874Z,5.20
2022-08-11T00:52:14.869Z,5.28
2022-08-11T00:54:20.502Z,5.93
2022-08-11T00:56:38.284Z,5.63
2022-08-11T00:59:26.415Z,5.30
2022-08-11T01:01:37.466Z,4.68
2022-08-11T01:04:07.681Z,5.85
2022-08-11T01:06:38.266Z,5.47
2022-08-11T01:08:57.418Z,5.65
2022-08-11T01:11:25.970Z,5.63
2022-08-11T01:14:00.807Z,5.72
2022-08-11T01:16:40.917Z,4.95
2022-08-11T01:19:21.955Z,5.20
2022-08-11T01:21:56.471Z,5.30
2022-08-11T01:24:20.942Z,4.85
2022-08-11T01:26:47.978Z,4.82
2022-08-11T01:29:08.922Z,5.00
2022-08-11T01:31:49.040Z,5.57
2022-08-11T01:34:28.944Z,4.93
2022-08-11T01:36:41.331Z,4.60
2022-08-11T01:39:22.765Z,5.28
2022-08-11T01:42:24.118Z,4.88
2022-08-11T01:45:14.560Z,4.82
2022-08-11T01:47:53.090Z,5.22
2022-08-11T01:50:10.863Z,5.35
2022-08-11T01:52:33.362Z,4.57
2022-08-11T01:55:19.525Z,4.63
2022-08-11T01:57:40.398Z,4.65
2022-08-11T01:59:55.449Z,4.60
2022-08-11T02:02:09.638Z,5.10
2022-08-11T02:04:42.420Z,4.45
2022-08-11T02:06:57.070Z,4.72
2022-08-11T02:09:22.203Z,4.50
2022-08-11T02:11:37.604Z,3.72
2022-08-11T02:14:14.382Z,4.45
2022-08-11T02:16:55.827Z,4.05
2022-08-11T02:19:35.393Z,4.18
2022-08-11T02:22:19.329Z,4.10
2022-08-11T02:24:29.132Z,4.65
2022-08-11T02:27:01.092Z,5.00
2022-08-11T02:29:42.320Z,5.10
2022-08-11T02:32:28.534Z,4.93
2022-08-11T02:35:00.749Z,4.82
2022-08-11T02:37:23.586Z,5.43
2022-08-11T02:39:39.828Z,5.35
2022-08-11T02:42:32.458Z,5.63
2022-08-11T02:44:56.716Z,5.35
2022-08-11T02:47:06.998Z,5.72
2022-08-11T02:49:45.790Z,5.40
2022-08-11T02:52:23.935Z,6.32
2022-08-11T02:55:11.492Z,5.35
2022-08-11T02:57:40.750Z,5.43
2022-08-11T02:59:52.364Z,4.90
2022-08-11T03:02:14.774Z,5.68
2022-08-11T03:04:37.341Z,5.13
2022-08-11T03:06:59.906Z,5.85
2022-08-11T03:09:11.264Z,5.93
2022-08-11T03:12:01.850Z,5.38
2022-08-11T03:14:45.954Z,6.53
2022-08-11T03:17:04.537Z,5.78
2022-08-11T03:19:29.810Z,6.05
2022-08-11T03:22:06.319Z,5.95
2022-08-11T03:24:19.346Z,4.95
2022-08-11T03:26:39.619Z,5.43
2022-08-11T03:29:02.042Z,5.13
2022-08-11T03:31:16.871Z,4.85
2022-08-11T03:34:07.593Z,4.68
2022-08-11T03:37:15.433Z,4.40
2022-08-11T03:39:31.003Z,3.80
2022-08-11T03:42:02.464Z,3.67
2022-08-11T03:44:25.912Z,3.47
2022-08-11T03:46:53.545Z,4.43
2022-08-11T03:49:33.895Z,3.90
2022-08-11T03:52:16.281Z,3.10
2022-08-11T03:54:27.948Z,2.40
2022-08-11T03:56:58.359Z,3.75
2022-08-11T03:59:17.403Z,2.70
2022-08-11T04:01:38.128Z,2.78
2022-08-11T04:04:02.501Z,2.58
2022-08-11T04:06:29.826Z,2.55
2022-08-11T04:09:13.965Z,1.85
2022-08-11T04:12:04.184Z,2.47
2022-08-11T04:14:52.269Z,1.85
2022-08-11T04:17:32.212Z,2.60
2022-08-11T04:20:11.779Z,2.13
2022-08-11T04:22:54.599Z,2.15
2022-08-11T04:25:11.985Z,2.00
2022-08-11T04:27:40.280Z,1.70
2022-08-11T04:30:09.024Z,1.65
2022-08-11T04:34:46.071Z,1.20
2022-08-11T04:37:13.009Z,2.33
2022-08-11T04:39:37.200Z,1.77
2022-08-11T04:42:36.076Z,2.10
2022-08-11T04:45:00.683Z,1.65
2022-08-11T04:47:05.942Z,1.40
2022-08-11T04:50:04.592Z,1.25
2022-08-11T04:52:53.420Z,1.45
2022-08-11T04:55:26.846Z,1.00
2022-08-11T04:58:08.749Z,1.52
2022-08-11T05:00:32.921Z,1.35
2022-08-11T05:03:09.479Z,1.77
2022-08-11T05:06:02.924Z,1.38
2022-08-11T05:08:44.411Z,1.23
2022-08-11T05:11:02.171Z,2.08
2022-08-11T05:13:28.092Z,1.58
2022-08-11T05:16:14.489Z,1.35
2022-08-11T05:18:42.535Z,1.42
2022-08-11T05:21:11.497Z,1.00
2022-08-11T05:23:35.488Z,1.63
2022-08-11T05:26:44.461Z,1.23
2022-08-11T05:29:00.438Z,1.35
2022-08-11T05:32:19.599Z,1.60
2022-08-11T05:34:52.050Z,1.40
2022-08-11T05:37:25.835Z,1.60
2022-08-11T05:39:50.055Z,1.50
2022-08-11T05:42:29.438Z,1.48
2022-08-11T05:44:54.974Z,1.38
2022-08-11T05:47:17.597Z,1.45
2022-08-11T05:52:05.498Z,1.67
2022-08-11T05:54:35.385Z,1.55
2022-08-11T05:56:49.817Z,1.20
2022-08-11T05:58:55.398Z,1.48
2022-08-11T06:00:59.419Z,1.95
2022-08-11T06:03:07.586Z,1.63
2022-08-11T06:05:11.868Z,1.60
2022-08-11T06:07:17.939Z,1.48
2022-08-11T06:09:30.056Z,1.90
2022-08-11T06:11:44.219Z,1.70
2022-08-11T06:13:48.560Z,1.67
2022-08-11T06:15:53.360Z,1.60
2022-08-11T06:17:57.890Z,2.25
2022-08-11T06:20:07.325Z,1.77
2022-08-11T06:22:12.686Z,1.45
2022-08-11T06:24:16.877Z,2.13
2022-08-11T06:26:20.665Z,1.60
2022-08-11T06:28:32.979Z,1.80
2022-08-11T06:30:46.867Z,2.13
2022-08-11T06:32:55.651Z,1.92
2022-08-11T06:35:13.181Z,1.65
2022-08-11T06:37:44.706Z,2.10
2022-08-11T06:42:10.183Z,1.67
2022-08-11T06:44:13.420Z,1.38
2022-08-11T06:46:28.406Z,1.52
2022-08-11T06:48:33.759Z,1.85
2022-08-11T06:50:55.187Z,1.70
2022-08-11T06:55:08.635Z,1.60
2022-08-11T06:57:33.264Z,2.20
2022-08-11T06:59:55.595Z,1.67
2022-08-11T07:02:05.288Z,1.73
2022-08-11T07:04:10.743Z,1.63
2022-08-11T07:06:50.590Z,2.10
2022-08-11T07:09:44.761Z,1.58
2022-08-11T07:12:18.433Z,1.73
2022-08-11T07:14:44.366Z,1.80
2022-08-11T07:16:49.541Z,1.77
2022-08-11T07:19:16.712Z,2.20
2022-08-11T07:22:01.445Z,1.50
2022-08-11T07:24:58.680Z,1.85
2022-08-11T07:27:15.229Z,1.58
2022-08-11T07:29:21.562Z,1.30
2022-08-11T07:31:42.428Z,2.15
2022-08-11T07:34:07.888Z,2.00
2022-08-11T07:36:15.231Z,1.70
2022-08-11T07:38:43.378Z,1.45
2022-08-11T07:40:51.753Z,1.88
2022-08-11T07:42:56.631Z,2.00
2022-08-11T07:45:18.375Z,1.95
2022-08-11T07:47:41.526Z,1.52
2022-08-11T07:50:04.745Z,1.73
2022-08-11T07:52:27.384Z,1.55
2022-08-11T07:54:33.380Z,1.92
2022-08-11T07:56:54.244Z,2.10
2022-08-11T07:59:17.150Z,1.17
2022-08-11T08:01:44.995Z,2.25
2022-08-11T08:04:06.709Z,1.52
2022-08-11T08:06:36.164Z,1.80
2022-08-11T08:09:00.789Z,2.08
2022-08-11T08:11:27.053Z,1.95
2022-08-11T08:13:52.222Z,2.13
2022-08-11T08:16:14.108Z,1.15
2022-08-11T08:18:25.927Z,1.83
2022-08-11T08:20:50.792Z,1.95
2022-08-11T08:22:59.131Z,1.42
2022-08-11T08:25:02.346Z,1.60
2022-08-11T08:27:06.574Z,1.58
2022-08-11T08:29:27.841Z,1.50
2022-08-11T08:31:30.663Z,1.50
2022-08-11T08:33:33.721Z,1.55
2022-08-11T08:35:37.831Z,1.40
2022-08-11T08:37:59.999Z,1.75
2022-08-11T08:40:02.799Z,1.80
2022-08-11T08:42:17.742Z,2.17
2022-08-11T08:44:40.798Z,1.38
2022-08-11T08:46:49.645Z,1.88
2022-08-11T08:48:53.260Z,1.88
2022-08-11T08:51:23.615Z,1.45
2022-08-11T08:53:32.984Z,1.20
2022-08-11T08:55:35.947Z,1.50
2022-08-11T08:57:41.481Z,1.50
2022-08-11T08:59:48.600Z,1.55
2022-08-11T09:01:58.097Z,1.77
2022-08-11T09:04:07.267Z,1.30
2022-08-11T09:06:15.337Z,1.65
2022-08-11T09:08:19.559Z,1.48
2022-08-11T09:10:23.494Z,1.17
2022-08-11T09:12:46.411Z,1.10
2022-08-11T09:15:08.223Z,1.42
2022-08-11T09:17:11.297Z,1.25
2022-08-11T09:19:19.367Z,1.40
2022-08-11T09:21:39.447Z,1.35
2022-08-11T09:24:09.091Z,1.30
2022-08-11T09:26:34.098Z,1.95
2022-08-11T09:28:37.203Z,1.10
2022-08-11T09:30:43.041Z,1.00
2022-08-11T09:32:47.761Z,1.80
2022-08-11T09:34:52.533Z,1.30
2022-08-11T09:37:53.653Z,1.05
2022-08-11T09:40:03.965Z,1.15
2022-08-11T09:42:11.257Z,1.42
2022-08-11T09:44:38.275Z,1.20
2022-08-11T09:46:41.851Z,1.38
2022-08-11T09:48:46.931Z,1.08
2022-08-11T09:50:52.344Z,1.92
2022-08-11T09:53:34.870Z,1.60
2022-08-11T09:55:18.693Z,1.02
2022-08-11T09:57:45.050Z,1.27
2022-08-11T09:59:48.571Z,1.30
2022-08-11T10:01:59.384Z,1.65
2022-08-11T10:04:10.332Z,1.08
2022-08-11T10:06:34.155Z,1.58
2022-08-11T10:08:41.071Z,1.17
2022-08-11T10:10:46.018Z,1.40
2022-08-11T10:13:01.806Z,1.90
2022-08-11T10:15:28.190Z,1.35
2022-08-11T10:17:33.325Z,1.30
2022-08-11T10:19:40.416Z,1.58
2022-08-11T10:22:06.681Z,1.02
2022-08-11T10:24:30.539Z,0.85
2022-08-11T10:26:53.718Z,1.58
2022-08-11T10:29:12.510Z,1.15
2022-08-11T10:31:57.058Z,1.17
2022-08-11T10:34:01.908Z,1.50
2022-08-11T10:36:16.077Z,1.33
2022-08-11T10:38:20.249Z,1.70
2022-08-11T10:40:25.065Z,1.50
2022-08-11T10:42:57.882Z,1.02
2022-08-11T10:45:03.880Z,1.85
2022-08-11T10:47:27.233Z,1.67
2022-08-11T10:49:30.888Z,2.13
2022-08-11T10:51:53.949Z,1.20
2022-08-11T10:54:18.874Z,1.33
2022-08-11T10:56:40.679Z,1.05
2022-08-11T10:58:50.004Z,3.08
2022-08-11T11:00:57.101Z,1.33
2022-08-11T11:03:23.230Z,1.08
2022-08-11T11:05:30.869Z,1.00
2022-08-11T11:07:41.525Z,1.30
2022-08-11T11:09:54.633Z,1.27
2022-08-11T11:12:21.879Z,1.20
2022-08-11T11:14:50.844Z,1.98
2022-08-11T11:17:16.731Z,0.65
2022-08-11T11:19:24.064Z,1.08
2022-08-11T11:21:27.776Z,1.27
2022-08-11T11:23:58.030Z,0.90
2022-08-11T11:26:27.322Z,0.95
2022-08-11T11:28:59.329Z,1.77
2022-08-11T11:31:15.842Z,1.45
2022-08-11T11:33:57.470Z,1.42
2022-08-11T11:36:18.561Z,1.45
2022-08-11T11:38:21.693Z,1.02
2022-08-11T11:40:30.561Z,0.90
2022-08-11T11:42:34.878Z,1.42
2022-08-11T11:44:45.001Z,1.65
2022-08-11T11:46:48.566Z,1.00
2022-08-11T11:48:51.750Z,2.88
2022-08-11T11:50:58.476Z,1.10
2022-08-11T11:53:04.930Z,1.77
2022-08-11T11:55:08.585Z,1.40
2022-08-11T11:57:33.423Z,1.20
2022-08-11T11:59:54.904Z,1.05
2022-08-11T12:01:57.980Z,1.17
2022-08-11T12:04:01.772Z,1.10
2022-08-11T12:06:05.354Z,1.30
2022-08-11T12:08:17.681Z,1.42
2022-08-11T12:10:20.939Z,1.25
2022-08-11T12:12:42.715Z,1.15
2022-08-11T12:14:45.524Z,1.02
2022-08-11T12:16:49.386Z,1.40
2022-08-11T12:18:59.708Z,1.13
2022-08-11T12:21:04.814Z,1.17
2022-08-11T12:23:26.371Z,1.10
2022-08-11T12:25:50.037Z,0.82
2022-08-11T12:28:03.036Z,1.05
2022-08-11T12:30:06.686Z,0.90
2022-08-11T12:32:09.564Z,1.13
2022-08-11T12:34:16.724Z,1.10
2022-08-11T12:36:21.211Z,0.80
2022-08-11T12:38:26.056Z,1.25
2022-08-11T12:41:16.133Z,0.98
2022-08-11T12:43:38.707Z,1.10
2022-08-11T12:45:43.335Z,1.20
2022-08-11T12:48:59.078Z,1.08
2022-08-11T12:50:53.402Z,1.48
2022-08-11T12:52:57.221Z,0.88
2022-08-11T12:55:39.251Z,1.00
2022-08-11T12:58:07.177Z,1.00
2022-08-11T13:00:29.845Z,1.05
2022-08-11T13:02:52.305Z,1.00
2022-08-11T13:04:59.638Z,0.98
2022-08-11T13:07:03.559Z,1.13
2022-08-11T13:09:08.963Z,1.02
2022-08-11T13:11:55.945Z,1.33
2022-08-11T13:13:57.933Z,0.75
2022-08-11T13:16:01.108Z,1.10
2022-08-11T13:18:08.776Z,1.20
2022-08-11T13:20:13.604Z,1.15
2022-08-11T13:22:18.841Z,0.85
2022-08-11T13:24:22.808Z,1.02
2022-08-11T13:26:46.784Z,1.13
2022-08-11T13:28:48.650Z,0.80
2022-08-11T13:31:11.435Z,1.00
2022-08-11T13:33:17.167Z,1.00
2022-08-11T13:35:20.620Z,1.00
2022-08-11T13:38:17.432Z,0.98
2022-08-11T13:39:47.654Z,1.42
2022-08-11T13:41:50.623Z,0.98
2022-08-11T13:43:54.820Z,0.63
2022-08-11T13:46:17.925Z,1.20
2022-08-11T13:48:20.651Z,0.90
2022-08-11T13:50:49.214Z,1.10
2022-08-11T13:52:53.350Z,0.82
2022-08-11T13:54:57.194Z,1.13
2022-08-11T13:57:08.143Z,0.85
2022-08-11T13:59:14.698Z,1.17
2022-08-11T14:02:03.809Z,1.00
2022-08-11T14:04:28.743Z,0.80
2022-08-11T14:06:07.362Z,1.20
2022-08-11T14:08:37.775Z,1.00
2022-08-11T14:10:39.198Z,1.02
2022-08-11T14:13:06.947Z,0.90
2022-08-11T14:15:25.385Z,0.85
2022-08-11T14:17:38.433Z,0.90
2022-08-11T14:19:53.840Z,1.20
2022-08-11T14:22:08.486Z,1.05
2022-08-11T14:24:11.915Z,1.00
2022-08-11T14:26:24.665Z,0.60
2022-08-11T14:28:33.091Z,1.10
2022-08-11T14:33:16.501Z,0.90
2022-08-11T14:35:20.377Z,1.00
2022-08-11T14:37:25.847Z,0.75
2022-08-11T14:39:35.568Z,1.55
2022-08-11T14:42:11.714Z,1.27
2022-08-11T14:44:35.448Z,1.00
2022-08-11T14:46:59.248Z,1.40
2022-08-11T14:49:02.362Z,0.90
2022-08-11T14:51:06.701Z,1.13
2022-08-11T14:53:17.793Z,1.35
2022-08-11T14:55:43.079Z,1.10
2022-08-11T14:57:55.085Z,0.88
2022-08-11T15:00:02.541Z,1.25
2022-08-11T15:02:30.571Z,1.55
2022-08-11T15:04:41.876Z,1.00
2022-08-11T15:06:46.031Z,1.08
2022-08-11T15:08:55.345Z,1.45
2022-08-11T15:10:58.151Z,1.10
2022-08-11T15:13:02.131Z,1.00
2022-08-11T15:15:25.455Z,1.00
2022-08-11T15:17:42.136Z,1.20
2022-08-11T15:20:06.384Z,1.08
2022-08-11T15:22:29.137Z,1.27
2022-08-11T15:24:33.858Z,0.80
2022-08-11T15:27:00.830Z,1.08
2022-08-11T15:29:23.628Z,1.27
2022-08-11T15:31:49.513Z,1.40
2022-08-11T15:34:14.276Z,1.08
2022-08-11T15:36:40.558Z,2.33
2022-08-11T15:39:09.365Z,1.33
2022-08-11T15:41:58.314Z,0.80
2022-08-11T15:44:44.648Z,1.25
2022-08-11T15:46:56.146Z,1.25
2022-08-11T15:49:03.027Z,1.05
2022-08-11T15:51:14.343Z,1.20
2022-08-11T15:53:33.282Z,1.30
2022-08-11T15:55:37.999Z,1.13
2022-08-11T15:58:01.239Z,1.40
2022-08-11T16:00:25.345Z,1.40
2022-08-11T16:02:48.955Z,1.08
2022-08-11T16:04:53.195Z,1.40
2022-08-11T16:07:15.020Z,1.23
2022-08-11T16:09:51.712Z,1.30
2022-08-11T16:11:59.951Z,1.45
2022-08-11T16:14:25.301Z,1.60
2022-08-11T16:16:29.519Z,1.40
2022-08-11T16:18:57.144Z,1.42
2022-08-11T16:21:01.251Z,1.35
2022-08-11T16:23:06.710Z,1.30
2022-08-11T16:27:04.683Z,1.20
2022-08-11T16:27:47.497Z,1.50
2022-08-11T16:29:51.995Z,1.48
2022-08-11T16:32:16.533Z,2.03
2022-08-11T16:34:37.977Z,1.50
2022-08-11T16:36:59.286Z,1.52
2022-08-11T16:41:11.929Z,1.10
2022-08-11T16:43:36.206Z,1.77
2022-08-11T16:46:00.171Z,1.25
2022-08-11T16:48:36.059Z,1.25
2022-08-11T16:50:26.313Z,1.50
2022-08-11T16:52:29.447Z,1.42
2022-08-11T16:54:36.278Z,1.60
2022-08-11T16:56:50.392Z,1.58
2022-08-11T16:59:16.228Z,1.20
2022-08-11T17:01:22.237Z,0.80
2022-08-11T17:03:43.667Z,1.10
2022-08-11T17:08:33.928Z,1.05
2022-08-11T17:11:04.175Z,1.17
2022-08-11T17:13:11.618Z,0.80
2022-08-11T17:15:39.375Z,1.45
2022-08-11T17:17:42.739Z,1.10
2022-08-11T17:20:42.731Z,1.20
2022-08-11T17:22:31.645Z,1.42
2022-08-11T17:24:43.647Z,1.40
2022-08-11T17:27:00.089Z,1.42
2022-08-11T17:29:03.694Z,1.05
2022-08-11T17:31:25.471Z,1.45
2022-08-11T17:33:50.138Z,1.38
2022-08-11T17:35:53.289Z,1.00
2022-08-11T17:38:00.544Z,1.10
2022-08-11T17:40:08.454Z,0.95
2022-08-11T17:42:29.700Z,0.98
2022-08-11T17:44:53.858Z,1.52
2022-08-11T17:47:17.472Z,0.93
2022-08-11T17:49:31.460Z,1.38
2022-08-11T17:51:54.167Z,1.13
2022-08-11T17:54:24.001Z,1.33
2022-08-11T17:56:51.737Z,1.38
2022-08-11T17:59:15.335Z,0.95
2022-08-11T18:01:20.565Z,1.23
2022-08-11T18:03:32.810Z,1.63
2022-08-11T18:05:38.255Z,1.00
2022-08-11T18:08:03.495Z,1.20
2022-08-11T18:10:26.972Z,1.15
2022-08-11T18:12:49.136Z,1.25
2022-08-11T18:15:15.125Z,1.63
2022-08-11T18:17:38.424Z,1.60
2022-08-11T18:20:00.024Z,1.35
2022-08-11T18:25:07.471Z,1.23
2022-08-11T18:27:34.621Z,1.55
2022-08-11T18:29:59.629Z,1.65
2022-08-11T18:32:30.016Z,1.05
2022-08-11T18:35:01.837Z,1.58
2022-08-11T18:37:31.121Z,1.30
2022-08-11T18:39:56.503Z,1.27
2022-08-11T18:42:29.260Z,1.02
2022-08-11T18:44:53.903Z,1.60
2022-08-11T18:47:17.111Z,0.90
2022-08-11T18:50:03.544Z,1.20
2022-08-11T18:52:26.196Z,1.00
2022-08-11T18:54:52.617Z,1.60
2022-08-11T18:57:21.275Z,1.13
2022-08-11T18:59:45.670Z,0.85
2022-08-11T19:02:08.168Z,0.90
2022-08-11T19:04:31.077Z,1.27
2022-08-11T19:06:56.158Z,1.80
2022-08-11T19:09:20.484Z,1.48
2022-08-11T19:11:44.176Z,1.45
2022-08-11T19:14:06.992Z,1.20
2022-08-11T19:16:29.064Z,1.30
2022-08-11T19:18:53.167Z,1.23
2022-08-11T19:21:15.843Z,1.02
2022-08-11T19:23:46.579Z,1.38
2022-08-11T19:26:08.938Z,1.40
2022-08-11T19:28:31.404Z,1.20
2022-08-11T19:30:53.393Z,1.30
2022-08-11T19:33:22.834Z,1.73
2022-08-11T19:36:01.846Z,1.50
2022-08-11T19:38:23.921Z,1.30
2022-08-11T19:40:48.095Z,1.60
2022-08-11T19:43:11.265Z,1.90
2022-08-11T19:45:45.844Z,2.00
2022-08-11T19:48:31.247Z,1.85
2022-08-11T19:50:54.895Z,2.58
2022-08-11T19:53:17.919Z,1.88
2022-08-11T19:55:40.357Z,1.50
2022-08-11T19:58:02.641Z,1.98
2022-08-11T20:00:29.945Z,1.30
2022-08-11T20:02:51.908Z,1.38
2022-08-11T20:05:13.266Z,1.63
2022-08-11T20:07:35.347Z,1.63
2022-08-11T20:10:04.679Z,1.55
2022-08-11T20:12:30.941Z,1.45
2022-08-11T20:14:56.228Z,1.77
2022-08-11T20:17:18.820Z,1.80
2022-08-11T20:19:56.219Z,1.63
2022-08-11T20:22:37.733Z,2.10
2022-08-11T20:25:01.160Z,1.58
2022-08-11T20:27:25.723Z,1.98
2022-08-11T20:29:51.253Z,1.60
2022-08-11T20:32:13.072Z,1.80
2022-08-11T20:34:35.799Z,1.67
2022-08-11T20:36:59.456Z,1.90
2022-08-11T20:39:22.662Z,2.00
2022-08-11T20:41:58.283Z,1.90
2022-08-11T20:44:21.834Z,1.92
2022-08-11T20:46:44.402Z,1.55
2022-08-11T20:49:09.209Z,1.52
2022-08-11T20:51:36.728Z,1.75
2022-08-11T20:54:05.472Z,1.42
2022-08-11T20:56:30.086Z,2.05
2022-08-11T21:04:20.041Z,1.90
2022-08-11T21:06:44.154Z,1.42
2022-08-11T21:09:07.474Z,1.85
2022-08-11T21:11:30.799Z,1.80
2022-08-11T21:13:58.403Z,1.70
2022-08-11T21:16:26.533Z,2.55
2022-08-11T21:18:51.245Z,2.10
2022-08-11T21:21:16.421Z,2.10
2022-08-11T21:23:39.159Z,2.30
2022-08-11T21:26:07.195Z,2.22
2022-08-11T21:28:29.687Z,2.65
2022-08-11T21:30:57.389Z,2.60
2022-08-11T21:33:21.388Z,3.42
2022-08-11T21:35:45.137Z,2.42
2022-08-11T21:38:09.124Z,2.97
2022-08-11T21:40:31.039Z,3.03
2022-08-11T21:42:55.577Z,2.60
2022-08-11T21:45:17.976Z,3.38
2022-08-11T21:47:43.740Z,2.83
2022-08-11T21:50:06.468Z,2.38
2022-08-11T21:52:28.548Z,2.88
2022-08-11T21:54:50.972Z,2.75
2022-08-11T21:57:14.422Z,2.63
2022-08-11T21:59:40.838Z,2.67
2022-08-11T22:02:03.721Z,2.05
2022-08-11T22:04:25.567Z,2.42
2022-08-11T22:06:48.766Z,2.65
2022-08-11T22:09:09.767Z,2.67
2022-08-11T22:11:32.816Z,2.55
2022-08-11T22:14:02.949Z,2.35
2022-08-11T22:16:29.298Z,2.80
2022-08-11T22:18:53.610Z,2.97
2022-08-11T22:21:56.600Z,3.20
2022-08-11T22:23:59.650Z,2.60
2022-08-11T22:26:21.891Z,2.78
2022-08-11T22:28:43.956Z,3.13
2022-08-11T22:31:05.252Z,3.05
2022-08-11T22:33:28.832Z,2.65
2022-08-11T22:35:50.899Z,3.00
2022-08-11T22:38:13.648Z,3.00
2022-08-11T22:40:34.592Z,3.45
2022-08-11T22:42:55.897Z,2.72
2022-08-11T22:45:17.573Z,3.20
2022-08-11T22:50:03.264Z,3.05
2022-08-11T22:52:26.988Z,2.92
2022-08-11T22:54:49.270Z,3.20
2022-08-11T22:57:11.119Z,3.60
2022-08-11T22:59:34.471Z,3.20
2022-08-11T23:01:57.509Z,2.47
2022-08-11T23:04:20.110Z,3.30
2022-08-11T23:06:41.846Z,3.00
2022-08-11T23:09:03.433Z,2.60
2022-08-11T23:13:49.630Z,3.20
2022-08-11T23:16:12.947Z,3.90
2022-08-11T23:18:37.769Z,4.28
2022-08-11T23:21:00.513Z,3.90
2022-08-11T23:23:22.207Z,4.07
2022-08-11T23:25:45.239Z,4.22
2022-08-11T23:28:06.833Z,3.55
2022-08-11T23:32:50.442Z,6.53
2022-08-11T23:35:38.808Z,8.35
2022-08-11T23:37:59.753Z,8.48
2022-08-11T23:40:21.367Z,9.57
2022-08-11T23:42:46.304Z,11.02
2022-08-11T23:45:09.894Z,10.77
2022-08-11T23:47:33.146Z,10.88
2022-08-11T23:50:12.297Z,10.07
2022-08-11T23:52:40.069Z,9.15
2022-08-11T23:55:02.919Z,9.05
2022-08-11T23:57:25.200Z,8.35
2022-08-11T23:59:46.189Z,7.57
